Weather observations for the past three days for
Pago Pago, AS, Samoa
Imperial (Metric)
Date Time (sst) Wind (mph) Vis. (mi.) Weather Sky Cond. Temperature (ºF) Relative Humidity Wind Chill (°F) Heat Index (°F) Pressure Precipitation (in)
Air Dwpt 6 hour altimeter (in) sea level (mb) 1 hr 3 hr 6 hr
Max. Min.
02 18:52 E 18 G 23 10.00 Partly Cloudy SCT021 79.5 72.5 84.4 79.5 79% 83 29.99 1015.6
02 17:50 SE 18 G 23 12.00 Partly Cloudy SCT020 79.9 72.7 79% 84 29.97 1015.1
02 16:51 E 21 G 25 12.00 Partly Cloudy and Breezy SCT019 81.7 73.8 77% 87 29.96 1014.7
02 15:50 E 20 G 25 12.00 Partly Cloudy SCT019 82.8 74.3 76% 89 29.95 1014.2
02 14:50 E 21 G 26 12.00 Partly Cloudy and Breezy SCT016 83.8 74.7 74% 91 29.95 1014.2
02 13:50 E 21 12.00 Overcast and Breezy SCT019 BKN040 BKN100 OVC200 83.8 75.6 76% 92 29.97 1014.9
02 12:50 E 21 G 25 12.00 Mostly Cloudy and Breezy SCT019 BKN040 BKN100 84.4 75.9 84.4 77 76% 93 29.98 1015.4 0.01
02 11:50 E 20 G 25 12.00 Mostly Cloudy SCT019 BKN040 BKN100 82.9 75.7 79% 91 30 1015.9
02 10:55 E 18 G 25 12.00 Overcast SCT018 BKN040 OVC100 82.4 75.4 79% 90 30.02 1016.8
02 09:50 E 18 G 25 12.00 Overcast SCT017TCU BKN040 OVC100 79.9 75.9 88% 85 30.04 1017.3 0.01
02 08:55 E 18 G 24 10.00 Overcast SCT016TCU BKN040 OVC100 79.2 76.1 90% 83 30.03 1016.9
02 06:50 E 17 G 25 10.00 Light Showers Rain BKN014TCU OVC040 77 75.4 79.2 77 95% 78 30 1015.9 0.19
02 05:50 E 17 10.00 Overcast BKN016 BKN040 OVC100 78.1 75.2 91% 81 29.98 1015.2
02 04:50 E 13 G 20 10.00 Mostly Cloudy BKN016 BKN040 BKN100 78.8 75.9 91% 83 29.95 1014.4
02 03:50 SE 14 G 20 10.00 Overcast BKN016 BKN040 OVC100 79 76.1 91% 83 29.96 1014.6
02 02:50 E 14 10.00 Overcast BKN016 BKN040 OVC100 78.3 75.6 91% 81 29.96 1014.7
02 01:50 SE 13 10.00 Overcast BKN015 BKN040 OVC100 79.2 76.8 93% 84 29.96 1014.7
02 00:50 SE 13 10.00 Overcast BKN015 BKN035 BKN100 OVC180 79 76.6 80.1 79 93% 83 29.98 1015.4 0.07
01 23:50 SE 16 10.00 Overcast BKN015 BKN035 BKN100 OVC180 79.2 76.6 92% 84 30 1015.9
01 22:50 E 14 10.00 Overcast BKN010 BKN035 BKN100 OVC200 79 76.6 93% 83 30 1015.9
01 21:50 SE 16 10.00 Overcast SCT011 BKN035 BKN100 OVC200 79.2 76.6 92% 84 30 1015.9 0.05
01 20:53 SE 18 10.00 Overcast BKN011TCU BKN035 BKN100 OVC200 79.2 76.8 93% 84 29.99 1015.6
01 19:54 SE 14 10.00 Mostly Cloudy SCT012 BKN035 BKN100 BKN200 79.7 76.8 91% 85 29.97 1015.1
01 18:51 SE 14 G 21 10.00 Mostly Cloudy SCT012TCU BKN100 BKN200 80.1 76.6 83.7 80.1 89% 86 29.96 1014.6
01 17:53 SE 16 12.00 Mostly Cloudy SCT012TCU BKN035 BKN100 80.4 76.6 88% 87 29.95 1014.2
01 16:54 SE 13 G 18 12.00 Mostly Cloudy BKN012TCU BKN035 BKN120 81 76.8 87% 88 29.94 1013.9
01 15:50 SE 16 12.00 Mostly Cloudy SCT012TCU BKN035 BKN100 81.9 77 85% 90 29.93 1013.5
01 14:50 E 14 G 18 11.00 Mostly Cloudy FEW010 BKN016TCU BKN040 83.1 78.3 85% 93 29.94 1013.9
01 13:50 E 15 G 20 11.00 Mostly Cloudy FEW010 BKN016TCU BKN040 83.7 77.9 83% 94 29.96 1014.6
01 12:50 SE 15 G 20 10.00 Mostly Cloudy FEW010 BKN016TCU BKN040 82.8 77.2 83.8 78.4 83% 92 29.97 1014.9 0.15
01 11:50 E 13 G 21 10.00 Overcast FEW010 BKN016TCU BKN040 OVC100 83.8 78.8 85% 95 29.98 1015.4
01 10:50 SE 14 G 21 8.00 Light Showers Rain FEW010 SCT014TCU BKN040 OVC100 81.5 77.7 88% 90 30 1016.1
01 09:50 SE 16 G 23 8.00 Light Showers Rain FEW008 BKN014TCU OVC040 80.2 77.7 92% 87 30 1016.1 0.15
01 08:50 SE 15 G 21 8.00 Light Showers Rain FEW008 BKN014TCU OVC040 79.2 77.5 95% 84 29.99 1015.6
01 07:50 SE 17 G 24 10.00 Mostly Cloudy SCT016TCU BKN040 BKN100 79.3 77.4 94% 84 29.98 1015.2
01 05:50 SE 15 G 21 10.00 Light Showers Rain BKN016TCU BKN040 OVC100 78.3 76.6 95% 81 29.94 1013.9
01 04:50 SE 13 G 17 10.00 Overcast BKN017 BKN040 OVC100 77.9 76.6 96% 80 29.93 1013.7
01 03:50 SE 14 G 18 10.00 Overcast BKN016 BKN040 OVC100 78.6 76.8 94% 82 29.93 1013.5 0.01
01 02:50 SE 16 10.00 Overcast BKN016TCU BKN040 OVC100 78.4 76.5 94% 82 29.94 1013.9
01 01:50 SE 15 10.00 Overcast BKN016TCU BKN040 OVC100 78.3 76.5 94% 81 29.95 1014.2
01 00:50 SE 16 G 21 10.00 Light Showers Rain BKN015TCU BKN035 OVC090 78.4 76.3 80.1 78.4 93% 82 29.96 1014.7
31 23:50 SE 15 G 20 10.00 Overcast BKN015TCU BKN035 OVC090 80.1 76.1 88% 85 29.98 1015.2
31 22:51 E 15 G 20 10.00 Overcast BKN014TCU BKN035 OVC090 80.1 75.7 87% 85 29.98 1015.2
31 21:50 E 15 G 22 10.00 Overcast SCT014 OVC090 80.1 75.6 86% 85 29.98 1015.2
31 20:50 E 16 G 21 10.00 Overcast SCT012 OVC090 79.9 75.4 86% 85 29.97 1015.1
31 19:50 SE 17 10.00 Overcast BKN011TCU BKN035 OVC080 79.5 75 86% 84 29.97 1014.9
31 18:50 SE 15 G 22 10.00 Mostly Cloudy SCT012TCU BKN035 BKN080 79.7 74.7 84.2 78.4 85% 84 29.95 1014.2 0.03
31 17:52 SE 16 11.00 Mostly Cloudy SCT012TCU BKN035 BKN080 79.2 75.4 88% 83 29.93 1013.7
31 16:52 SE 18 G 23 9.00 Light Showers Rain SCT012TCU BKN035 OVC080 78.4 75.2 90% 82 29.93 1013.5
31 15:55 SE 17 G 24 11.00 Overcast SCT015TCU BKN035 OVC080 81.1 75.2 82% 87 29.92 1013.2
31 14:50 SE 15 G 22 12.00 Overcast SCT016TCU BKN040 OVC080 81.5 75.4 82% 88 29.95 1014.4
31 13:50 SE 15 G 22 12.00 Overcast BKN015TCU BKN040 OVC080 82.9 75.2 78% 90 29.94 1013.9
31 12:50 SE 15 G 21 12.00 Overcast BKN015TCU BKN040 OVC080 84.2 75.4 85.5 79.7 75% 93 29.95 1014.4
31 11:50 E 14 G 21 12.00 Mostly Cloudy BKN015TCU BKN040 85.5 75.9 73% 95 29.97 1015.1
31 10:50 E 15 G 21 12.00 Mostly Cloudy BKN015TCU BKN040 84.4 75.7 75% 93 30 1015.9
31 09:50 SE 16 G 22 12.00 Mostly Cloudy SCT015TCU BKN100 BKN210 83.5 75.4 77% 91 30.01 1016.3
31 08:50 E 15 G 21 12.00 Mostly Cloudy SCT015TCU BKN100 BKN210 81.9 75.4 81% 89 30 1015.9
31 06:50 SE 16 G 20 12.00 Mostly Cloudy FEW019 SCT040 BKN100 79.7 74.8 79.7 79 85% 84 29.97 1015.1
31 05:55 SE 16 G 21 10.00 Mostly Cloudy FEW019 SCT040 BKN100 79.2 74.8 87% 83 29.96 1014.6
31 04:50 SE 15 10.00 Mostly Cloudy FEW019 SCT040 BKN100 79 74.8 87% 83 29.95 1014.4
31 03:50 SE 14 10.00 Mostly Cloudy SCT019 BKN040 BKN100 79.2 75 87% 83 29.95 1014.4
31 02:50 SE 15 G 18 10.00 Mostly Cloudy SCT019 BKN040 BKN100 79.2 75.4 88% 83 29.95 1014.2
31 01:55 SE 15 G 21 10.00 Mostly Cloudy SCT019 BKN040 BKN100 79.3 75.2 87% 84 29.95 1014.4
31 00:50 SE 15 10.00 Mostly Cloudy SCT019 BKN040 79.3 75.4 80.1 79.3 88% 84 29.97 1014.9
30 23:50 SE 13 10.00 Mostly Cloudy SCT019 BKN040 79.5 75.7 88% 84 29.99 1015.7
30 22:50 SE 13 10.00 Mostly Cloudy BKN016 BKN038 79.9 75.7 87% 85 29.99 1015.7
30 21:50 SE 12 10.00 Mostly Cloudy BKN016 BKN038 79.9 75.6 87% 85 29.99 1015.6
30 20:50 SE 12 10.00 Mostly Cloudy BKN016 BKN038 80.1 75.4 86% 85 29.98 1015.4
30 19:50 SE 12 10.00 Mostly Cloudy BKN016 BKN040 80.1 75.2 85% 85 29.97 1014.9
Date Time (sst) Wind (mph) Vis. (mi.) Weather Sky Cond. Air Dwpt Max. Min. Relative Humidity Wind Chill (°F) Heat Index (°F) altimeter (in) sea level (mb) 1 hr 3 hr 6 hr
6 hour
Temperature (ºF) Pressure Precipitation (in)